sensor_id;sensor_type;location;lat;lon;timestamp;pressure;altitude;pressure_sealevel;temperature;humidity
38718;BME280;24468;52.128;9.278;2023-10-31T00:01:35;98597.25;;;14.42;100.00
38718;BME280;24468;52.128;9.278;2023-10-31T00:04:00;98598.13;;;14.43;100.00
38718;BME280;24468;52.128;9.278;2023-10-31T00:06:26;98597.84;;;14.46;100.00
38718;BME280;24468;52.128;9.278;2023-10-31T00:08:51;98591.97;;;14.41;100.00
38718;BME280;24468;52.128;9.278;2023-10-31T00:11:18;98581.25;;;14.30;100.00
38718;BME280;24468;52.128;9.278;2023-10-31T00:13:44;98568.81;;;14.27;100.00
38718;BME280;24468;52.128;9.278;2023-10-31T00:16:09;98573.28;;;14.38;100.00
38718;BME280;24468;52.128;9.278;2023-10-31T00:18:35;98561.97;;;14.33;100.00
38718;BME280;24468;52.128;9.278;2023-10-31T00:21:00;98563.53;;;14.16;100.00
38718;BME280;24468;52.128;9.278;2023-10-31T00:23:26;98556.69;;;14.21;100.00
38718;BME280;24468;52.128;9.278;2023-10-31T00:25:51;98565.63;;;14.12;100.00
38718;BME280;24468;52.128;9.278;2023-10-31T00:28:17;98564.94;;;14.20;100.00
38718;BME280;24468;52.128;9.278;2023-10-31T00:30:42;98554.56;;;14.35;100.00
38718;BME280;24468;52.128;9.278;2023-10-31T00:33:08;98567.53;;;14.21;100.00
38718;BME280;24468;52.128;9.278;2023-10-31T00:35:33;98568.94;;;14.26;100.00
38718;BME280;24468;52.128;9.278;2023-10-31T00:37:59;98567.53;;;14.31;100.00
38718;BME280;24468;52.128;9.278;2023-10-31T00:40:24;98564.13;;;14.39;100.00
38718;BME280;24468;52.128;9.278;2023-10-31T00:42:50;98580.25;;;14.31;100.00
38718;BME280;24468;52.128;9.278;2023-10-31T00:45:15;98572.53;;;14.36;100.00
38718;BME280;24468;52.128;9.278;2023-10-31T00:47:41;98565.13;;;14.38;100.00
38718;BME280;24468;52.128;9.278;2023-10-31T00:50:07;98563.56;;;14.45;100.00
38718;BME280;24468;52.128;9.278;2023-10-31T00:52:34;98566.41;;;14.43;100.00
38718;BME280;24468;52.128;9.278;2023-10-31T00:54:59;98559.25;;;14.42;100.00
38718;BME280;24468;52.128;9.278;2023-10-31T00:57:25;98565.72;;;14.51;100.00
38718;BME280;24468;52.128;9.278;2023-10-31T00:59:51;98562.84;;;14.43;100.00
38718;BME280;24468;52.128;9.278;2023-10-31T01:02:16;98556.69;;;14.51;100.00
38718;BME280;24468;52.128;9.278;2023-10-31T01:04:42;98553.00;;;14.52;100.00
38718;BME280;24468;52.128;9.278;2023-10-31T01:07:07;98549.75;;;14.58;100.00
38718;BME280;24468;52.128;9.278;2023-10-31T01:09:37;98546.88;;;14.69;100.00
38718;BME280;24468;52.128;9.278;2023-10-31T01:12:03;98556.47;;;14.73;100.00
38718;BME280;24468;52.128;9.278;2023-10-31T01:14:29;98552.63;;;14.76;100.00
38718;BME280;24468;52.128;9.278;2023-10-31T01:16:54;98554.88;;;14.80;100.00
38718;BME280;24468;52.128;9.278;2023-10-31T01:19:20;98541.91;;;14.84;100.00
38718;BME280;24468;52.128;9.278;2023-10-31T01:21:45;98541.03;;;14.83;100.00
38718;BME280;24468;52.128;9.278;2023-10-31T01:24:11;98540.75;;;14.86;100.00
38718;BME280;24468;52.128;9.278;2023-10-31T01:26:36;98543.72;;;14.83;100.00
38718;BME280;24468;52.128;9.278;2023-10-31T01:29:02;98544.47;;;14.85;100.00
38718;BME280;24468;52.128;9.278;2023-10-31T01:31:27;98546.31;;;14.85;100.00
38718;BME280;24468;52.128;9.278;2023-10-31T01:33:53;98542.75;;;14.84;100.00
38718;BME280;24468;52.128;9.278;2023-10-31T01:36:19;98547.59;;;14.81;100.00
38718;BME280;24468;52.128;9.278;2023-10-31T01:38:44;98551.47;;;14.78;100.00
38718;BME280;24468;52.128;9.278;2023-10-31T01:41:12;98543.31;;;14.59;100.00
38718;BME280;24468;52.128;9.278;2023-10-31T01:43:38;98541.84;;;14.45;100.00
38718;BME280;24468;52.128;9.278;2023-10-31T01:46:04;98534.72;;;14.44;100.00
38718;BME280;24468;52.128;9.278;2023-10-31T01:48:32;98531.59;;;14.58;100.00
38718;BME280;24468;52.128;9.278;2023-10-31T01:50:59;98526.88;;;14.41;100.00
38718;BME280;24468;52.128;9.278;2023-10-31T01:53:26;98530.72;;;14.38;100.00
38718;BME280;24468;52.128;9.278;2023-10-31T01:55:54;98537.94;;;14.09;100.00
38718;BME280;24468;52.128;9.278;2023-10-31T01:58:33;98533.00;;;14.33;100.00
38718;BME280;24468;52.128;9.278;2023-10-31T02:01:00;98514.03;;;14.53;100.00
38718;BME280;24468;52.128;9.278;2023-10-31T02:03:28;98514.44;;;14.38;100.00
38718;BME280;24468;52.128;9.278;2023-10-31T02:05:57;98513.72;;;14.27;100.00
38718;BME280;24468;52.128;9.278;2023-10-31T02:08:25;98506.56;;;14.45;100.00
38718;BME280;24468;52.128;9.278;2023-10-31T02:10:50;98490.47;;;14.53;100.00
38718;BME280;24468;52.128;9.278;2023-10-31T02:13:17;98489.69;;;14.12;100.00
38718;BME280;24468;52.128;9.278;2023-10-31T02:15:44;98497.56;;;13.96;100.00
38718;BME280;24468;52.128;9.278;2023-10-31T02:18:10;98493.34;;;13.82;100.00
38718;BME280;24468;52.128;9.278;2023-10-31T02:20:36;98491.53;;;13.83;100.00
38718;BME280;24468;52.128;9.278;2023-10-31T02:23:05;98483.94;;;13.76;100.00
38718;BME280;24468;52.128;9.278;2023-10-31T02:25:30;98488.94;;;13.71;100.00
38718;BME280;24468;52.128;9.278;2023-10-31T02:27:56;98498.31;;;13.67;100.00
38718;BME280;24468;52.128;9.278;2023-10-31T02:30:23;98505.47;;;13.78;100.00
38718;BME280;24468;52.128;9.278;2023-10-31T02:32:49;98504.28;;;13.61;100.00
38718;BME280;24468;52.128;9.278;2023-10-31T02:35:16;98497.53;;;13.86;100.00
38718;BME280;24468;52.128;9.278;2023-10-31T02:37:46;98494.09;;;13.84;100.00
38718;BME280;24468;52.128;9.278;2023-10-31T02:40:13;98492.78;;;13.78;100.00
38718;BME280;24468;52.128;9.278;2023-10-31T02:42:38;98463.91;;;12.97;100.00
38718;BME280;24468;52.128;9.278;2023-10-31T02:45:04;98491.03;;;12.85;100.00
38718;BME280;24468;52.128;9.278;2023-10-31T02:47:30;98488.69;;;12.71;100.00
38718;BME280;24468;52.128;9.278;2023-10-31T02:49:55;98490.19;;;12.43;100.00
38718;BME280;24468;52.128;9.278;2023-10-31T02:52:21;98494.97;;;12.51;100.00
38718;BME280;24468;52.128;9.278;2023-10-31T02:54:47;98516.63;;;12.39;100.00
38718;BME280;24468;52.128;9.278;2023-10-31T02:57:13;98516.63;;;12.39;100.00
38718;BME280;24468;52.128;9.278;2023-10-31T02:59:38;98505.34;;;12.55;100.00
38718;BME280;24468;52.128;9.278;2023-10-31T03:02:04;98513.91;;;12.39;100.00
38718;BME280;24468;52.128;9.278;2023-10-31T03:04:29;98508.69;;;12.27;100.00
38718;BME280;24468;52.128;9.278;2023-10-31T03:06:55;98514.84;;;12.17;100.00
38718;BME280;24468;52.128;9.278;2023-10-31T03:09:20;98531.41;;;12.35;100.00
38718;BME280;24468;52.128;9.278;2023-10-31T03:11:46;98522.53;;;12.33;100.00
38718;BME280;24468;52.128;9.278;2023-10-31T03:14:11;98530.81;;;12.32;100.00
38718;BME280;24468;52.128;9.278;2023-10-31T03:16:37;98541.78;;;12.19;100.00
38718;BME280;24468;52.128;9.278;2023-10-31T03:19:03;98553.28;;;12.32;100.00
38718;BME280;24468;52.128;9.278;2023-10-31T03:21:29;98539.94;;;12.52;100.00
38718;BME280;24468;52.128;9.278;2023-10-31T03:23:54;98540.94;;;12.51;100.00
38718;BME280;24468;52.128;9.278;2023-10-31T03:26:21;98562.03;;;12.24;100.00
38718;BME280;24468;52.128;9.278;2023-10-31T03:28:47;98567.84;;;12.09;100.00
38718;BME280;24468;52.128;9.278;2023-10-31T03:31:14;98562.28;;;12.21;100.00
38718;BME280;24468;52.128;9.278;2023-10-31T03:33:40;98569.50;;;12.32;100.00
38718;BME280;24468;52.128;9.278;2023-10-31T03:36:10;98558.31;;;11.93;100.00
38718;BME280;24468;52.128;9.278;2023-10-31T03:38:36;98544.59;;;12.17;100.00
38718;BME280;24468;52.128;9.278;2023-10-31T03:41:03;98583.03;;;12.32;100.00
38718;BME280;24468;52.128;9.278;2023-10-31T03:43:29;98574.72;;;12.13;100.00
38718;BME280;24468;52.128;9.278;2023-10-31T03:45:54;98589.06;;;12.24;100.00
38718;BME280;24468;52.128;9.278;2023-10-31T03:48:20;98579.16;;;12.02;100.00
38718;BME280;24468;52.128;9.278;2023-10-31T03:50:46;98591.94;;;12.00;100.00
38718;BME280;24468;52.128;9.278;2023-10-31T03:53:12;98583.94;;;12.10;100.00
38718;BME280;24468;52.128;9.278;2023-10-31T03:55:38;98591.81;;;11.79;100.00
38718;BME280;24468;52.128;9.278;2023-10-31T03:58:03;98577.56;;;11.66;100.00
38718;BME280;24468;52.128;9.278;2023-10-31T04:00:29;98598.56;;;11.74;100.00
38718;BME280;24468;52.128;9.278;2023-10-31T04:02:55;98590.22;;;11.66;100.00
38718;BME280;24468;52.128;9.278;2023-10-31T04:05:21;98577.31;;;11.58;100.00
38718;BME280;24468;52.128;9.278;2023-10-31T04:07:48;98604.44;;;11.56;100.00
38718;BME280;24468;52.128;9.278;2023-10-31T04:10:14;98575.22;;;11.39;100.00
38718;BME280;24468;52.128;9.278;2023-10-31T04:12:39;98595.72;;;11.53;100.00
38718;BME280;24468;52.128;9.278;2023-10-31T04:15:05;98598.50;;;11.29;100.00
38718;BME280;24468;52.128;9.278;2023-10-31T04:17:31;98589.06;;;11.34;100.00
38718;BME280;24468;52.128;9.278;2023-10-31T04:19:57;98608.69;;;11.25;100.00
38718;BME280;24468;52.128;9.278;2023-10-31T04:22:22;98593.91;;;15.08;100.00
38718;BME280;24468;52.128;9.278;2023-10-31T04:24:48;98612.22;;;13.87;100.00
38718;BME280;24468;52.128;9.278;2023-10-31T04:27:13;98630.19;;;14.68;100.00
38718;BME280;24468;52.128;9.278;2023-10-31T04:29:39;98628.63;;;14.95;100.00
38718;BME280;24468;52.128;9.278;2023-10-31T04:32:05;98609.88;;;14.53;100.00
38718;BME280;24468;52.128;9.278;2023-10-31T04:34:31;98616.19;;;14.73;100.00
38718;BME280;24468;52.128;9.278;2023-10-31T04:36:57;98615.06;;;14.26;100.00
38718;BME280;24468;52.128;9.278;2023-10-31T04:39:22;98623.88;;;15.26;100.00
38718;BME280;24468;52.128;9.278;2023-10-31T04:41:48;98635.47;;;14.80;100.00
38718;BME280;24468;52.128;9.278;2023-10-31T04:44:13;98633.19;;;14.65;100.00
38718;BME280;24468;52.128;9.278;2023-10-31T04:46:39;98646.66;;;13.44;100.00
38718;BME280;24468;52.128;9.278;2023-10-31T04:49:04;98650.88;;;13.58;100.00
38718;BME280;24468;52.128;9.278;2023-10-31T04:51:37;98665.00;;;13.41;100.00
38718;BME280;24468;52.128;9.278;2023-10-31T04:54:04;98644.06;;;14.85;100.00
38718;BME280;24468;52.128;9.278;2023-10-31T04:56:30;98649.09;;;13.99;100.00
38718;BME280;24468;52.128;9.278;2023-10-31T04:58:55;98650.59;;;14.63;100.00
38718;BME280;24468;52.128;9.278;2023-10-31T05:01:21;98661.34;;;14.84;100.00
38718;BME280;24468;52.128;9.278;2023-10-31T05:03:46;98651.50;;;15.12;100.00
38718;BME280;24468;52.128;9.278;2023-10-31T05:06:12;98672.50;;;13.79;100.00
38718;BME280;24468;52.128;9.278;2023-10-31T05:08:37;98650.66;;;14.42;100.00
38718;BME280;24468;52.128;9.278;2023-10-31T05:11:03;98673.94;;;14.44;100.00
38718;BME280;24468;52.128;9.278;2023-10-31T05:13:29;98670.44;;;14.63;100.00
38718;BME280;24468;52.128;9.278;2023-10-31T05:15:55;98658.22;;;14.98;100.00
38718;BME280;24468;52.128;9.278;2023-10-31T05:18:20;98687.59;;;12.98;100.00
38718;BME280;24468;52.128;9.278;2023-10-31T05:20:46;98687.75;;;14.72;100.00
38718;BME280;24468;52.128;9.278;2023-10-31T05:23:11;98672.28;;;14.53;100.00
38718;BME280;24468;52.128;9.278;2023-10-31T05:25:37;98686.75;;;14.33;100.00
38718;BME280;24468;52.128;9.278;2023-10-31T05:28:04;98702.19;;;14.01;100.00
38718;BME280;24468;52.128;9.278;2023-10-31T05:30:30;98680.34;;;13.30;100.00
38718;BME280;24468;52.128;9.278;2023-10-31T05:32:55;98693.34;;;13.37;100.00
38718;BME280;24468;52.128;9.278;2023-10-31T05:35:22;98700.53;;;12.83;100.00
38718;BME280;24468;52.128;9.278;2023-10-31T05:37:48;98698.81;;;13.25;100.00
38718;BME280;24468;52.128;9.278;2023-10-31T05:40:15;98691.84;;;14.16;100.00
38718;BME280;24468;52.128;9.278;2023-10-31T05:42:41;98700.16;;;13.52;100.00
38718;BME280;24468;52.128;9.278;2023-10-31T05:45:07;98694.34;;;13.56;100.00
38718;BME280;24468;52.128;9.278;2023-10-31T05:47:33;98707.97;;;13.66;100.00
38718;BME280;24468;52.128;9.278;2023-10-31T05:49:58;98693.91;;;14.03;100.00
38718;BME280;24468;52.128;9.278;2023-10-31T05:52:30;98701.16;;;14.23;100.00
38718;BME280;24468;52.128;9.278;2023-10-31T05:54:57;98706.84;;;13.69;100.00
38718;BME280;24468;52.128;9.278;2023-10-31T05:57:23;98720.59;;;13.56;100.00
38718;BME280;24468;52.128;9.278;2023-10-31T05:59:48;98715.44;;;13.74;100.00
38718;BME280;24468;52.128;9.278;2023-10-31T06:02:14;98732.84;;;13.71;100.00
38718;BME280;24468;52.128;9.278;2023-10-31T06:04:40;98720.38;;;13.90;100.00
38718;BME280;24468;52.128;9.278;2023-10-31T06:07:06;98740.00;;;13.40;100.00
38718;BME280;24468;52.128;9.278;2023-10-31T06:09:32;98739.81;;;13.53;100.00
38718;BME280;24468;52.128;9.278;2023-10-31T06:11:59;98753.91;;;13.47;100.00
38718;BME280;24468;52.128;9.278;2023-10-31T06:14:25;98755.09;;;13.10;100.00
38718;BME280;24468;52.128;9.278;2023-10-31T06:16:51;98769.69;;;13.84;100.00
38718;BME280;24468;52.128;9.278;2023-10-31T06:19:17;98759.06;;;13.50;100.00
38718;BME280;24468;52.128;9.278;2023-10-31T06:21:42;98753.38;;;13.95;100.00
38718;BME280;24468;52.128;9.278;2023-10-31T06:24:08;98762.28;;;13.00;100.00
38718;BME280;24468;52.128;9.278;2023-10-31T06:26:34;98762.81;;;14.00;100.00
38718;BME280;24468;52.128;9.278;2023-10-31T06:28:59;98760.47;;;14.48;100.00
38718;BME280;24468;52.128;9.278;2023-10-31T06:31:25;98752.91;;;14.41;100.00
38718;BME280;24468;52.128;9.278;2023-10-31T06:33:50;98747.16;;;13.30;100.00
38718;BME280;24468;52.128;9.278;2023-10-31T06:36:16;98755.59;;;13.48;100.00
38718;BME280;24468;52.128;9.278;2023-10-31T06:38:41;98753.91;;;13.47;100.00
38718;BME280;24468;52.128;9.278;2023-10-31T06:41:07;98767.19;;;13.50;100.00
38718;BME280;24468;52.128;9.278;2023-10-31T06:43:32;98743.97;;;13.36;100.00
38718;BME280;24468;52.128;9.278;2023-10-31T06:45:58;98764.09;;;13.96;100.00
38718;BME280;24468;52.128;9.278;2023-10-31T06:48:26;98767.31;;;13.69;100.00
38718;BME280;24468;52.128;9.278;2023-10-31T06:50:51;98748.72;;;14.07;100.00
38718;BME280;24468;52.128;9.278;2023-10-31T06:53:17;98775.13;;;14.05;100.00
38718;BME280;24468;52.128;9.278;2023-10-31T06:55:42;98777.63;;;13.00;100.00
38718;BME280;24468;52.128;9.278;2023-10-31T06:58:08;98772.69;;;13.27;100.00
38718;BME280;24468;52.128;9.278;2023-10-31T07:00:33;98773.97;;;13.44;100.00
38718;BME280;24468;52.128;9.278;2023-10-31T07:02:59;98771.56;;;14.04;100.00
38718;BME280;24468;52.128;9.278;2023-10-31T07:05:30;98760.28;;;13.46;100.00
38718;BME280;24468;52.128;9.278;2023-10-31T07:07:56;98761.31;;;13.87;100.00
38718;BME280;24468;52.128;9.278;2023-10-31T07:10:22;98765.78;;;13.55;100.00
38718;BME280;24468;52.128;9.278;2023-10-31T07:12:47;98780.81;;;13.81;100.00
38718;BME280;24468;52.128;9.278;2023-10-31T07:15:13;98782.94;;;13.77;100.00
38718;BME280;24468;52.128;9.278;2023-10-31T07:17:38;98769.44;;;14.08;100.00
38718;BME280;24468;52.128;9.278;2023-10-31T07:20:06;98757.47;;;13.68;100.00
38718;BME280;24468;52.128;9.278;2023-10-31T07:22:31;98760.38;;;14.18;100.00
38718;BME280;24468;52.128;9.278;2023-10-31T07:24:57;98780.50;;;13.74;100.00
38718;BME280;24468;52.128;9.278;2023-10-31T07:27:24;98778.22;;;14.21;100.00
38718;BME280;24468;52.128;9.278;2023-10-31T07:29:50;98782.25;;;14.06;100.00
38718;BME280;24468;52.128;9.278;2023-10-31T07:32:15;98789.94;;;14.21;100.00
38718;BME280;24468;52.128;9.278;2023-10-31T07:34:41;98809.72;;;13.59;100.00
38718;BME280;24468;52.128;9.278;2023-10-31T07:37:10;98800.47;;;13.94;100.00
38718;BME280;24468;52.128;9.278;2023-10-31T07:39:35;98802.97;;;13.86;100.00
38718;BME280;24468;52.128;9.278;2023-10-31T07:42:01;98792.66;;;13.79;100.00
38718;BME280;24468;52.128;9.278;2023-10-31T07:44:26;98800.69;;;13.38;100.00
38718;BME280;24468;52.128;9.278;2023-10-31T07:46:52;98811.66;;;13.68;100.00
38718;BME280;24468;52.128;9.278;2023-10-31T07:49:17;98822.53;;;14.10;100.00
38718;BME280;24468;52.128;9.278;2023-10-31T07:51:43;98813.66;;;13.66;100.00
38718;BME280;24468;52.128;9.278;2023-10-31T07:54:08;98828.09;;;13.55;100.00
38718;BME280;24468;52.128;9.278;2023-10-31T07:56:35;98823.81;;;13.85;100.00
38718;BME280;24468;52.128;9.278;2023-10-31T07:59:01;98837.69;;;13.27;100.00
38718;BME280;24468;52.128;9.278;2023-10-31T08:01:27;98850.97;;;12.97;100.00
38718;BME280;24468;52.128;9.278;2023-10-31T08:03:53;98855.16;;;12.56;100.00
38718;BME280;24468;52.128;9.278;2023-10-31T08:06:19;98862.31;;;12.57;100.00
38718;BME280;24468;52.128;9.278;2023-10-31T08:08:45;98863.63;;;13.30;100.00
38718;BME280;24468;52.128;9.278;2023-10-31T08:11:10;98877.91;;;13.21;100.00
38718;BME280;24468;52.128;9.278;2023-10-31T08:13:37;98884.22;;;12.76;100.00
38718;BME280;24468;52.128;9.278;2023-10-31T08:16:05;98886.50;;;12.47;100.00
38718;BME280;24468;52.128;9.278;2023-10-31T08:18:31;98882.31;;;12.32;100.00
38718;BME280;24468;52.128;9.278;2023-10-31T08:20:57;98901.59;;;12.27;100.00
38718;BME280;24468;52.128;9.278;2023-10-31T08:23:22;98904.19;;;11.93;100.00
38718;BME280;24468;52.128;9.278;2023-10-31T08:25:48;98916.53;;;12.09;100.00
38718;BME280;24468;52.128;9.278;2023-10-31T08:28:14;98914.97;;;12.86;100.00
38718;BME280;24468;52.128;9.278;2023-10-31T08:30:39;98923.44;;;12.93;100.00
38718;BME280;24468;52.128;9.278;2023-10-31T08:33:05;98925.03;;;13.52;100.00
38718;BME280;24468;52.128;9.278;2023-10-31T08:35:31;98921.38;;;13.42;100.00
38718;BME280;24468;52.128;9.278;2023-10-31T08:37:57;98918.56;;;13.75;100.00
38718;BME280;24468;52.128;9.278;2023-10-31T08:40:22;98924.31;;;13.93;100.00
38718;BME280;24468;52.128;9.278;2023-10-31T08:42:48;98923.09;;;13.20;100.00
38718;BME280;24468;52.128;9.278;2023-10-31T08:45:14;98928.88;;;13.82;100.00
38718;BME280;24468;52.128;9.278;2023-10-31T08:47:39;98925.28;;;13.92;100.00
38718;BME280;24468;52.128;9.278;2023-10-31T08:50:06;98918.53;;;14.40;100.00
38718;BME280;24468;52.128;9.278;2023-10-31T08:52:34;98933.53;;;13.13;100.00
38718;BME280;24468;52.128;9.278;2023-10-31T08:54:59;98932.66;;;13.58;100.00
38718;BME280;24468;52.128;9.278;2023-10-31T08:57:25;98933.47;;;14.13;100.00
38718;BME280;24468;52.128;9.278;2023-10-31T08:59:50;98940.41;;;14.59;100.00
38718;BME280;24468;52.128;9.278;2023-10-31T09:02:16;98946.72;;;14.49;100.00
38718;BME280;24468;52.128;9.278;2023-10-31T09:04:42;98946.50;;;13.87;100.00
38718;BME280;24468;52.128;9.278;2023-10-31T09:07:07;98942.94;;;14.19;100.00
38718;BME280;24468;52.128;9.278;2023-10-31T09:09:33;98948.94;;;13.90;100.00
38718;BME280;24468;52.128;9.278;2023-10-31T09:11:58;98941.44;;;14.26;100.00
38718;BME280;24468;52.128;9.278;2023-10-31T09:14:24;98947.47;;;14.72;100.00
38718;BME280;24468;52.128;9.278;2023-10-31T09:16:49;98948.72;;;13.82;100.00
38718;BME280;24468;52.128;9.278;2023-10-31T09:19:15;98950.09;;;14.41;100.00
38718;BME280;24468;52.128;9.278;2023-10-31T09:21:40;98962.88;;;14.29;100.00
38718;BME280;24468;52.128;9.278;2023-10-31T09:24:08;98966.56;;;13.41;100.00
38718;BME280;24468;52.128;9.278;2023-10-31T09:26:33;98981.06;;;13.51;100.00
38718;BME280;24468;52.128;9.278;2023-10-31T09:28:59;98984.63;;;13.63;100.00
38718;BME280;24468;52.128;9.278;2023-10-31T09:31:24;98974.69;;;13.52;100.00
38718;BME280;24468;52.128;9.278;2023-10-31T09:33:50;98981.84;;;13.97;100.00
38718;BME280;24468;52.128;9.278;2023-10-31T09:36:16;98993.34;;;13.22;100.00
38718;BME280;24468;52.128;9.278;2023-10-31T09:38:42;98987.44;;;13.73;100.00
38718;BME280;24468;52.128;9.278;2023-10-31T09:41:07;99005.69;;;13.60;100.00
38718;BME280;24468;52.128;9.278;2023-10-31T09:43:33;98996.81;;;13.69;100.00
38718;BME280;24468;52.128;9.278;2023-10-31T09:45:59;99008.41;;;13.26;100.00
38718;BME280;24468;52.128;9.278;2023-10-31T09:48:27;99006.53;;;13.15;100.00
38718;BME280;24468;52.128;9.278;2023-10-31T09:50:53;98994.44;;;13.87;100.00
38718;BME280;24468;52.128;9.278;2023-10-31T09:53:19;99019.13;;;13.61;100.00
38718;BME280;24468;52.128;9.278;2023-10-31T09:55:46;99027.25;;;13.27;100.00
38718;BME280;24468;52.128;9.278;2023-10-31T09:58:12;99036.19;;;13.84;100.00
38718;BME280;24468;52.128;9.278;2023-10-31T10:00:38;99035.59;;;13.92;100.00
38718;BME280;24468;52.128;9.278;2023-10-31T10:03:07;99043.09;;;13.99;100.00
38718;BME280;24468;52.128;9.278;2023-10-31T10:05:36;99062.66;;;14.03;100.00
38718;BME280;24468;52.128;9.278;2023-10-31T10:08:04;99055.09;;;13.63;100.00
38718;BME280;24468;52.128;9.278;2023-10-31T10:10:29;99056.94;;;13.74;100.00
38718;BME280;24468;52.128;9.278;2023-10-31T10:12:57;99052.06;;;14.11;100.00
38718;BME280;24468;52.128;9.278;2023-10-31T10:15:24;99060.44;;;14.08;100.00
38718;BME280;24468;52.128;9.278;2023-10-31T10:17:51;99058.66;;;14.30;100.00
38718;BME280;24468;52.128;9.278;2023-10-31T10:20:18;99077.03;;;14.37;100.00
38718;BME280;24468;52.128;9.278;2023-10-31T10:22:44;99069.66;;;14.17;100.00
38718;BME280;24468;52.128;9.278;2023-10-31T10:25:13;99055.53;;;14.57;100.00
38718;BME280;24468;52.128;9.278;2023-10-31T10:27:41;99076.81;;;15.15;100.00
38718;BME280;24468;52.128;9.278;2023-10-31T10:30:08;99078.44;;;15.27;100.00
38718;BME280;24468;52.128;9.278;2023-10-31T10:32:34;99082.25;;;15.15;100.00
38718;BME280;24468;52.128;9.278;2023-10-31T10:35:00;99099.19;;;14.86;100.00
38718;BME280;24468;52.128;9.278;2023-10-31T10:37:27;99092.66;;;14.56;100.00
38718;BME280;24468;52.128;9.278;2023-10-31T10:39:53;99088.94;;;14.57;100.00
38718;BME280;24468;52.128;9.278;2023-10-31T10:42:33;99086.97;;;14.59;100.00
38718;BME280;24468;52.128;9.278;2023-10-31T10:45:04;99074.72;;;14.65;100.00
38718;BME280;24468;52.128;9.278;2023-10-31T10:47:33;99098.56;;;15.15;100.00
38718;BME280;24468;52.128;9.278;2023-10-31T10:50:00;99108.59;;;14.82;100.00
38718;BME280;24468;52.128;9.278;2023-10-31T10:52:42;99127.22;;;14.32;100.00
38718;BME280;24468;52.128;9.278;2023-10-31T10:55:20;99104.34;;;14.02;100.00
38718;BME280;24468;52.128;9.278;2023-10-31T10:58:01;99115.09;;;14.47;100.00
38718;BME280;24468;52.128;9.278;2023-10-31T11:00:29;99132.63;;;14.43;100.00
38718;BME280;24468;52.128;9.278;2023-10-31T11:02:56;99126.38;;;14.75;100.00
38718;BME280;24468;52.128;9.278;2023-10-31T11:05:24;99137.38;;;14.07;100.00
38718;BME280;24468;52.128;9.278;2023-10-31T11:07:49;99139.88;;;14.65;100.00
38718;BME280;24468;52.128;9.278;2023-10-31T11:10:17;99148.47;;;14.04;100.00
38718;BME280;24468;52.128;9.278;2023-10-31T11:12:43;99149.38;;;14.37;100.00
38718;BME280;24468;52.128;9.278;2023-10-31T11:15:13;99141.16;;;13.48;100.00
38718;BME280;24468;52.128;9.278;2023-10-31T11:17:43;99138.16;;;14.53;100.00
38718;BME280;24468;52.128;9.278;2023-10-31T11:20:11;99138.06;;;14.43;100.00
38718;BME280;24468;52.128;9.278;2023-10-31T11:22:44;99135.19;;;14.44;100.00
38718;BME280;24468;52.128;9.278;2023-10-31T11:25:22;99137.84;;;14.01;100.00
38718;BME280;24468;52.128;9.278;2023-10-31T11:27:53;99146.44;;;14.62;100.00
38718;BME280;24468;52.128;9.278;2023-10-31T11:33:00;99145.53;;;13.96;100.00
38718;BME280;24468;52.128;9.278;2023-10-31T11:35:29;99155.59;;;14.28;100.00
38718;BME280;24468;52.128;9.278;2023-10-31T11:38:02;99156.91;;;14.56;100.00
38718;BME280;24468;52.128;9.278;2023-10-31T11:40:37;99152.28;;;14.79;100.00
38718;BME280;24468;52.128;9.278;2023-10-31T11:43:05;99161.88;;;14.28;100.00
38718;BME280;24468;52.128;9.278;2023-10-31T11:45:42;99160.38;;;14.35;100.00
38718;BME280;24468;52.128;9.278;2023-10-31T11:48:09;99150.91;;;14.30;100.00
38718;BME280;24468;52.128;9.278;2023-10-31T11:50:37;99157.56;;;14.14;100.00
38718;BME280;24468;52.128;9.278;2023-10-31T11:53:12;99158.78;;;13.76;100.00
38718;BME280;24468;52.128;9.278;2023-10-31T11:55:46;99171.25;;;14.35;100.00
38718;BME280;24468;52.128;9.278;2023-10-31T11:58:21;99156.34;;;13.85;100.00
38718;BME280;24468;52.128;9.278;2023-10-31T12:00:52;99174.59;;;14.16;100.00
38718;BME280;24468;52.128;9.278;2023-10-31T12:03:22;99180.59;;;14.42;100.00
38718;BME280;24468;52.128;9.278;2023-10-31T12:05:58;99179.75;;;14.19;100.00
38718;BME280;24468;52.128;9.278;2023-10-31T12:08:34;99172.63;;;13.96;100.00
38718;BME280;24468;52.128;9.278;2023-10-31T12:11:17;99186.28;;;14.28;100.00
38718;BME280;24468;52.128;9.278;2023-10-31T12:14:00;99194.44;;;14.62;100.00
38718;BME280;24468;52.128;9.278;2023-10-31T12:16:29;99194.31;;;14.18;100.00
38718;BME280;24468;52.128;9.278;2023-10-31T12:24:07;99191.94;;;14.70;100.00
38718;BME280;24468;52.128;9.278;2023-10-31T12:26:34;99186.75;;;14.44;100.00
38718;BME280;24468;52.128;9.278;2023-10-31T12:29:20;99196.91;;;13.97;100.00
38718;BME280;24468;52.128;9.278;2023-10-31T12:31:53;99200.97;;;14.03;100.00
38718;BME280;24468;52.128;9.278;2023-10-31T12:34:22;99190.97;;;14.49;100.00
38718;BME280;24468;52.128;9.278;2023-10-31T12:36:53;99196.88;;;14.31;100.00
38718;BME280;24468;52.128;9.278;2023-10-31T12:39:26;99189.25;;;14.14;100.00
38718;BME280;24468;52.128;9.278;2023-10-31T12:41:53;99193.94;;;14.00;100.00
38718;BME280;24468;52.128;9.278;2023-10-31T12:44:28;99192.69;;;14.38;100.00
38718;BME280;24468;52.128;9.278;2023-10-31T12:46:54;99201.72;;;14.05;100.00
38718;BME280;24468;52.128;9.278;2023-10-31T12:49:20;99186.25;;;14.73;100.00
38718;BME280;24468;52.128;9.278;2023-10-31T12:57:06;99199.50;;;14.10;100.00
38718;BME280;24468;52.128;9.278;2023-10-31T12:59:34;99230.91;;;13.90;100.00
38718;BME280;24468;52.128;9.278;2023-10-31T13:02:00;99209.34;;;14.00;100.00